createdAt,value
2022-09-10T00:01:02.819Z,153758.78
2022-09-10T00:03:30.580Z,153788.59
2022-09-10T00:05:58.347Z,153815.81
2022-09-10T00:08:27.511Z,153811.94
2022-09-10T00:10:55.227Z,153815.81
2022-09-10T00:13:24.451Z,153827.50
2022-09-10T00:15:54.632Z,153828.75
2022-09-10T00:18:23.500Z,153809.34
2022-09-10T00:20:53.726Z,153837.81
2022-09-10T00:23:25.859Z,153821.03
2022-09-10T00:25:56.024Z,153845.63
2022-09-10T00:28:25.807Z,153849.50
2022-09-10T00:30:55.571Z,153823.63
2022-09-10T00:33:24.368Z,153817.09
2022-09-10T00:35:52.223Z,153839.16
2022-09-10T00:38:20.369Z,153805.44
2022-09-10T00:40:48.312Z,153846.94
2022-09-10T00:43:20.789Z,153824.88
2022-09-10T00:45:51.901Z,153831.34
2022-09-10T00:48:23.863Z,153819.69
2022-09-10T00:50:52.254Z,153818.41
2022-09-10T00:53:23.549Z,153844.34
2022-09-10T00:55:55.906Z,153849.50
2022-09-10T00:58:26.440Z,153848.22
2022-09-10T01:00:58.542Z,153815.81
2022-09-10T01:03:30.148Z,153857.28
2022-09-10T01:05:58.571Z,153830.09
2022-09-10T01:08:27.458Z,153817.09
2022-09-10T01:11:08.449Z,153788.59
2022-09-10T01:13:49.399Z,153831.34
2022-09-10T01:16:25.142Z,153823.63
2022-09-10T01:19:03.824Z,153830.09
2022-09-10T01:21:36.100Z,153817.09
2022-09-10T01:24:30.538Z,153840.44
2022-09-10T01:27:33.930Z,153849.50
2022-09-10T01:30:09.139Z,153848.22
2022-09-10T01:32:48.624Z,153824.88
2022-09-10T01:35:19.665Z,153844.34
2022-09-10T01:37:53.318Z,153831.34
2022-09-10T01:40:29.617Z,153804.16
2022-09-10T01:43:01.748Z,153795.09
2022-09-10T01:45:33.977Z,153776.91
2022-09-10T01:48:31.267Z,153804.16
2022-09-10T01:51:08.912Z,153808.03
2022-09-10T01:54:00.134Z,153795.09
2022-09-10T01:56:39.721Z,153806.75
2022-09-10T01:59:19.130Z,153779.53
2022-09-10T02:01:53.155Z,153780.84
2022-09-10T02:04:23.292Z,153780.84
2022-09-10T02:06:52.495Z,153760.13
2022-09-10T02:09:20.868Z,153762.72
2022-09-10T02:11:51.188Z,153769.19
2022-09-10T02:14:21.653Z,153815.81
2022-09-10T02:16:55.060Z,153805.44
2022-09-10T02:19:22.934Z,153802.84
2022-09-10T02:21:50.799Z,153824.88
2022-09-10T02:24:18.775Z,153826.16
2022-09-10T02:26:47.223Z,153806.75
2022-09-10T02:29:16.984Z,153810.63
2022-09-10T02:31:45.106Z,153782.13
2022-09-10T02:34:15.816Z,153774.38
2022-09-10T02:36:43.639Z,153810.63
2022-09-10T02:39:11.479Z,153802.84
2022-09-10T02:41:41.494Z,153817.09
2022-09-10T02:44:09.765Z,153824.88
2022-09-10T02:46:38.205Z,153826.16
2022-09-10T02:49:06.160Z,153843.03
2022-09-10T02:51:35.270Z,153832.69
2022-09-10T02:54:02.972Z,153840.44
2022-09-10T02:56:30.683Z,153846.94
2022-09-10T02:58:58.531Z,153854.69
2022-09-10T03:01:26.336Z,153821.03
2022-09-10T03:03:56.309Z,153813.22
2022-09-10T03:06:24.894Z,153822.28
2022-09-10T03:08:55.614Z,153795.09
2022-09-10T03:11:24.191Z,153804.16
2022-09-10T03:13:52.232Z,153819.69
2022-09-10T03:16:20.645Z,153795.09
2022-09-10T03:18:48.733Z,153806.75
2022-09-10T03:21:18.855Z,153778.25
2022-09-10T03:23:49.539Z,153826.16
2022-09-10T03:26:20.460Z,153802.84
2022-09-10T03:28:50.136Z,153821.03
2022-09-10T03:31:18.240Z,153814.50
2022-09-10T03:33:46.320Z,153815.81
2022-09-10T03:36:14.408Z,153811.94
2022-09-10T03:38:42.631Z,153805.44
2022-09-10T03:41:11.160Z,153780.84
2022-09-10T03:43:40.231Z,153788.59
2022-09-10T03:46:07.991Z,153752.31
2022-09-10T03:48:35.701Z,153778.25
2022-09-10T03:51:03.487Z,153730.28
2022-09-10T03:53:31.247Z,153745.88
2022-09-10T03:55:58.987Z,153751.06
2022-09-10T03:58:26.814Z,153771.78
2022-09-10T04:00:56.059Z,153744.53
2022-09-10T04:03:23.836Z,153741.94
2022-09-10T04:05:51.672Z,153719.94
2022-09-10T04:08:20.574Z,153700.50
2022-09-10T04:10:48.821Z,153714.75
2022-09-10T04:13:16.741Z,153731.59
2022-09-10T04:15:46.025Z,153734.22
2022-09-10T04:18:15.521Z,153716.03
2022-09-10T04:20:46.592Z,153762.72
2022-09-10T04:23:14.632Z,153748.47
2022-09-10T04:25:42.388Z,153725.16
2022-09-10T04:28:11.450Z,153745.88
2022-09-10T04:30:40.293Z,153734.22
2022-09-10T04:33:08.273Z,153761.38
2022-09-10T04:35:37.693Z,153732.88
2022-09-10T04:38:05.500Z,153730.28
2022-09-10T04:40:34.107Z,153730.28
2022-09-10T04:43:01.928Z,153734.22
2022-09-10T04:45:30.837Z,153749.72
2022-09-10T04:48:00.850Z,153749.72
2022-09-10T04:50:31.364Z,153714.75
2022-09-10T04:53:01.224Z,153688.84
2022-09-10T04:55:31.369Z,153701.81
2022-09-10T04:57:59.131Z,153719.94
2022-09-10T05:00:27.078Z,153734.22
2022-09-10T05:02:54.827Z,153721.22
2022-09-10T05:05:22.520Z,153727.75
2022-09-10T05:07:50.276Z,153753.59
2022-09-10T05:10:22.317Z,153740.66
2022-09-10T05:12:50.275Z,153730.28
2022-09-10T05:15:18.098Z,153743.28
2022-09-10T05:17:47.337Z,153732.88
2022-09-10T05:20:15.185Z,153731.59
2022-09-10T05:22:43.272Z,153743.28
2022-09-10T05:25:11.139Z,153739.41
2022-09-10T05:27:41.813Z,153709.56
2022-09-10T05:30:10.684Z,153697.91
2022-09-10T05:32:40.136Z,153716.03
2022-09-10T05:35:09.465Z,153740.66
2022-09-10T05:37:37.229Z,153713.47
2022-09-10T05:40:06.194Z,153688.84
2022-09-10T05:42:34.321Z,153692.72
2022-09-10T05:45:03.581Z,153691.44
2022-09-10T05:47:31.486Z,153688.84
2022-09-10T05:49:59.321Z,153662.94
2022-09-10T05:52:27.149Z,153666.84
2022-09-10T05:54:56.451Z,153701.81
2022-09-10T05:57:24.288Z,153717.34
2022-09-10T05:59:52.316Z,153697.91
2022-09-10T06:02:24.285Z,153674.59
2022-09-10T06:04:52.211Z,153705.69
2022-09-10T06:07:20.032Z,153699.22
2022-09-10T06:09:47.804Z,153729.00
2022-09-10T06:12:17.198Z,153744.53
2022-09-10T06:14:45.025Z,153740.66
2022-09-10T06:17:13.048Z,153752.31
2022-09-10T06:19:44.599Z,153743.28
2022-09-10T06:22:13.045Z,153738.06
2022-09-10T06:24:40.806Z,153758.78
2022-09-10T06:27:09.689Z,153770.47
2022-09-10T06:29:37.728Z,153793.78
2022-09-10T06:32:06.380Z,153787.31
2022-09-10T06:34:35.752Z,153817.09
2022-09-10T06:37:06.193Z,153813.22
2022-09-10T06:39:34.080Z,153839.16
2022-09-10T06:42:01.914Z,153856.00
2022-09-10T06:44:30.433Z,153854.69
2022-09-10T06:49:46.187Z,153850.81
2022-09-10T06:52:15.384Z,153859.88
2022-09-10T06:54:43.162Z,153833.97
2022-09-10T06:57:11.142Z,153830.09
2022-09-10T06:59:38.881Z,153831.34
2022-09-10T07:02:06.673Z,153833.97
2022-09-10T07:04:34.461Z,153835.28
2022-09-10T07:07:02.552Z,153850.81
2022-09-10T07:09:31.752Z,153861.16
2022-09-10T07:12:00.160Z,153818.41
2022-09-10T07:14:28.103Z,153818.41
2022-09-10T07:16:56.945Z,153815.81
2022-09-10T07:19:24.948Z,153827.50
2022-09-10T07:21:52.762Z,153771.78
2022-09-10T07:24:21.452Z,153837.81
2022-09-10T07:26:50.623Z,153818.41
2022-09-10T07:29:19.213Z,153828.75
2022-09-10T07:31:48.179Z,153841.75
2022-09-10T07:34:16.394Z,153857.28
2022-09-10T07:36:44.237Z,153875.41
2022-09-10T07:39:12.066Z,153898.78
2022-09-10T07:41:39.852Z,153906.59
2022-09-10T07:44:09.071Z,153919.56
2022-09-10T07:46:37.988Z,153945.44
2022-09-10T07:49:05.799Z,153971.38
2022-09-10T07:51:35.696Z,153967.50
2022-09-10T07:54:03.796Z,153968.81
2022-09-10T07:56:31.925Z,153950.66
2022-09-10T07:58:59.650Z,153975.31
2022-09-10T08:01:28.980Z,154002.50
2022-09-10T08:03:57.441Z,153924.72
2022-09-10T08:06:25.841Z,153957.16
2022-09-10T08:08:53.539Z,153945.44
2022-09-10T08:11:22.367Z,153962.31
2022-09-10T08:13:52.416Z,153966.22
2022-09-10T08:16:23.103Z,153994.72
2022-09-10T08:18:52.894Z,153988.25
2022-09-10T08:21:20.774Z,154007.69
2022-09-10T08:23:51.350Z,154031.03
2022-09-10T08:26:20.068Z,154064.78
2022-09-10T08:28:48.453Z,154059.56
2022-09-10T08:31:16.749Z,154021.97
2022-09-10T08:33:49.340Z,154011.56
2022-09-10T08:36:19.337Z,154062.16
2022-09-10T08:38:47.639Z,154073.84
2022-09-10T08:41:32.539Z,154043.97
2022-09-10T08:44:05.352Z,154024.56
2022-09-10T08:46:38.272Z,154032.31
2022-09-10T08:49:12.697Z,154069.91
2022-09-10T08:51:46.053Z,154051.78
2022-09-10T08:54:16.956Z,154068.66
2022-09-10T08:56:46.964Z,154103.66
2022-09-10T08:59:22.339Z,154110.13
2022-09-10T09:01:54.894Z,154133.47
2022-09-10T09:04:35.075Z,154085.50
2022-09-10T09:07:13.137Z,154116.59
2022-09-10T09:09:41.095Z,154124.41
2022-09-10T09:12:19.728Z,154139.94
2022-09-10T09:14:56.471Z,154156.81
2022-09-10T09:17:51.135Z,154182.81
2022-09-10T09:20:26.646Z,154114.06
2022-09-10T09:22:57.336Z,154176.28
2022-09-10T09:25:28.727Z,154208.75
2022-09-10T09:27:57.378Z,154221.75
2022-09-10T09:30:28.840Z,154259.31
2022-09-10T09:33:03.507Z,154181.53
2022-09-10T09:35:34.695Z,154199.69
2022-09-10T09:38:19.221Z,154274.91
2022-09-10T09:40:49.617Z,154255.44
2022-09-10T09:43:29.788Z,154296.94
2022-09-10T09:45:58.113Z,154300.88
2022-09-10T09:48:26.385Z,154319.03
2022-09-10T09:50:56.763Z,154342.38
2022-09-10T09:53:27.802Z,154335.91
2022-09-10T09:55:57.967Z,154248.97
2022-09-10T09:58:34.707Z,154280.13
2022-09-10T10:01:14.579Z,154219.16
2022-09-10T10:03:58.785Z,154217.81
2022-09-10T10:06:29.684Z,154184.13
2022-09-10T10:09:05.073Z,154178.94
2022-09-10T10:11:57.728Z,154217.81
2022-09-10T10:14:35.096Z,154203.56
2022-09-10T10:17:03.242Z,154173.69
2022-09-10T10:19:35.284Z,154152.94
2022-09-10T10:22:21.859Z,154155.53
2022-09-10T10:24:54.182Z,154137.38
2022-09-10T10:27:30.131Z,154141.25
2022-09-10T10:29:59.453Z,154091.97
2022-09-10T10:32:35.235Z,154111.44
2022-09-10T10:35:24.240Z,154086.78
2022-09-10T10:38:14.243Z,154093.25
2022-09-10T10:40:48.690Z,154115.31
2022-09-10T10:43:29.291Z,154072.53
2022-09-10T10:46:02.334Z,154062.16
2022-09-10T10:48:42.674Z,154056.97
2022-09-10T10:51:18.252Z,154072.53
2022-09-10T10:53:58.910Z,154054.38
2022-09-10T10:56:33.904Z,154055.66
2022-09-10T10:59:18.407Z,154055.66
2022-09-10T11:01:52.973Z,154076.44
2022-09-10T11:04:29.009Z,154089.38
2022-09-10T11:07:02.074Z,154081.59
2022-09-10T11:09:34.032Z,154028.44
2022-09-10T11:12:06.863Z,154007.69
2022-09-10T11:14:40.863Z,154081.59
2022-09-10T11:17:16.307Z,154134.78
2022-09-10T11:20:00.621Z,154127.00
2022-09-10T11:22:43.749Z,154112.72
2022-09-10T11:25:21.002Z,154159.41
2022-09-10T11:27:54.872Z,154162.00
2022-09-10T11:30:24.211Z,154190.59
2022-09-10T11:32:58.642Z,154299.53
2022-09-10T11:35:29.967Z,154210.06
2022-09-10T11:38:07.856Z,154268.44
2022-09-10T11:40:43.553Z,154306.06
2022-09-10T11:43:16.192Z,154223.03
2022-09-10T11:45:48.148Z,154182.81
2022-09-10T11:48:24.555Z,154230.81
2022-09-10T11:50:57.320Z,154204.88
2022-09-10T11:53:26.211Z,154225.63
2022-09-10T11:56:12.333Z,154273.59
2022-09-10T11:58:50.531Z,154338.50
2022-09-10T12:01:30.471Z,154298.28
2022-09-10T12:04:17.207Z,154357.94
2022-09-10T12:06:54.987Z,154277.53
2022-09-10T12:09:30.784Z,154383.91
2022-09-10T12:12:09.059Z,154439.75
2022-09-10T12:14:39.887Z,154434.53
2022-09-10T12:17:14.465Z,154411.19
2022-09-10T12:19:47.792Z,154376.13
2022-09-10T12:22:21.569Z,154425.47
2022-09-10T12:24:56.395Z,154443.63
2022-09-10T12:27:45.493Z,154420.25
2022-09-10T12:30:59.048Z,154439.75
2022-09-10T12:33:54.238Z,154304.75
2022-09-10T12:36:55.373Z,154256.78
2022-09-10T12:39:24.906Z,154281.41
2022-09-10T12:41:59.652Z,154319.03
2022-09-10T12:44:45.471Z,154335.91
2022-09-10T12:47:30.088Z,154248.97
2022-09-10T12:50:03.081Z,154251.56
2022-09-10T12:52:45.058Z,154210.06
2022-09-10T12:55:22.054Z,154200.94
2022-09-10T12:58:00.333Z,154228.22
2022-09-10T13:00:39.263Z,154233.41
2022-09-10T13:03:17.065Z,154258.03
2022-09-10T13:05:53.268Z,154251.56
2022-09-10T13:08:25.656Z,154272.31
2022-09-10T13:11:15.848Z,154235.97
2022-09-10T13:13:46.159Z,154235.97
2022-09-10T13:16:18.829Z,154180.19
2022-09-10T13:18:48.295Z,154225.63
2022-09-10T13:21:52.916Z,154290.47
2022-09-10T13:25:01.724Z,154287.88
2022-09-10T13:27:39.887Z,154313.81
2022-09-10T13:30:21.956Z,154307.34
2022-09-10T13:32:53.344Z,154289.19
2022-09-10T13:35:42.620Z,154272.31
2022-09-10T13:38:33.041Z,154277.53
2022-09-10T13:41:25.332Z,154259.31
2022-09-10T13:44:15.791Z,154215.22
2022-09-10T13:46:46.596Z,154221.75
2022-09-10T13:49:20.060Z,154188.00
2022-09-10T13:51:52.273Z,154255.44
2022-09-10T13:54:34.603Z,154225.63
2022-09-10T13:57:09.884Z,154242.50
2022-09-10T13:59:38.495Z,154228.22
2022-09-10T14:02:06.357Z,154245.09
2022-09-10T14:04:36.809Z,154248.97
2022-09-10T14:07:11.537Z,154224.28
2022-09-10T14:09:43.582Z,154230.81
2022-09-10T14:12:13.922Z,154245.09
2022-09-10T14:14:45.385Z,154234.69
2022-09-10T14:17:17.597Z,154223.03
2022-09-10T14:19:49.376Z,154202.28
2022-09-10T14:22:22.220Z,154186.72
2022-09-10T14:24:53.603Z,154168.47
2022-09-10T14:27:27.272Z,154149.06
2022-09-10T14:29:57.425Z,154160.72
2022-09-10T14:32:29.420Z,154177.56
2022-09-10T14:34:57.621Z,154185.41
2022-09-10T14:37:31.184Z,154226.91
2022-09-10T14:40:04.074Z,154200.94
2022-09-10T14:42:36.194Z,154173.69
2022-09-10T14:45:04.700Z,154225.63
2022-09-10T14:47:37.080Z,154272.31
2022-09-10T14:50:28.392Z,154298.28
2022-09-10T14:52:56.535Z,154254.16
2022-09-10T14:55:26.312Z,154273.59
2022-09-10T14:57:56.665Z,154287.88
2022-09-10T15:00:26.022Z,154293.06
2022-09-10T15:02:57.370Z,154267.13
2022-09-10T15:05:25.416Z,154232.09
2022-09-10T15:07:53.342Z,154282.72
2022-09-10T15:10:21.204Z,154277.53
2022-09-10T15:12:52.356Z,154329.44
2022-09-10T15:15:21.644Z,154330.69
2022-09-10T15:17:49.401Z,154357.94
2022-09-10T15:20:17.673Z,154368.34
2022-09-10T15:22:46.016Z,154376.13
2022-09-10T15:25:28.395Z,154400.78
2022-09-10T15:27:56.153Z,154409.84
2022-09-10T15:30:25.695Z,154429.34
2022-09-10T15:32:54.359Z,154420.25
2022-09-10T15:35:23.075Z,154421.53
2022-09-10T15:37:51.282Z,154434.53
2022-09-10T15:40:19.073Z,154456.63
2022-09-10T15:42:46.895Z,154504.69
2022-09-10T15:45:15.042Z,154511.16
2022-09-10T15:47:44.215Z,154479.97
2022-09-10T15:50:12.302Z,154505.94
2022-09-10T15:52:40.500Z,154507.28
2022-09-10T15:55:09.022Z,154470.91
2022-09-10T15:57:36.855Z,154507.28
2022-09-10T16:00:06.624Z,154472.22
2022-09-10T16:02:34.831Z,154435.81
2022-09-10T16:05:04.363Z,154483.91
2022-09-10T16:07:32.248Z,154487.78
2022-09-10T16:10:00.064Z,154472.22
2022-09-10T16:12:27.877Z,154511.16
2022-09-10T16:14:55.831Z,154526.72
2022-09-10T16:17:23.582Z,154520.22
2022-09-10T16:19:54.133Z,154528.03
2022-09-10T16:22:23.979Z,154518.97
2022-09-10T16:24:51.729Z,154526.72
2022-09-10T16:27:19.514Z,154526.72
2022-09-10T16:29:48.203Z,154537.13
2022-09-10T16:32:15.940Z,154529.31
2022-09-10T16:34:43.702Z,154526.72
2022-09-10T16:37:11.455Z,154490.38
2022-09-10T16:39:40.760Z,154495.59
2022-09-10T16:42:09.706Z,154487.78
2022-09-10T16:44:37.420Z,154464.44
2022-09-10T16:47:05.245Z,154424.13
2022-09-10T16:49:33.011Z,154451.41
2022-09-10T16:52:00.795Z,154476.09
2022-09-10T16:54:29.012Z,154443.63
2022-09-10T16:56:58.169Z,154464.44
2022-09-10T16:59:26.022Z,154470.91
2022-09-10T17:01:54.838Z,154441.00
2022-09-10T17:04:28.947Z,154405.97
2022-09-10T17:06:57.307Z,154407.25
2022-09-10T17:09:25.997Z,154389.09
2022-09-10T17:11:54.072Z,154400.78
2022-09-10T17:14:23.584Z,154413.78
2022-09-10T17:16:52.090Z,154382.63
2022-09-10T17:19:23.642Z,154408.56
2022-09-10T17:21:53.063Z,154402.09
2022-09-10T17:24:23.105Z,154373.53
2022-09-10T17:26:51.783Z,154325.50
2022-09-10T17:29:22.302Z,154343.72
2022-09-10T17:31:52.435Z,154330.69
2022-09-10T17:34:21.507Z,154335.91
2022-09-10T17:36:49.732Z,154328.09
2022-09-10T17:39:18.571Z,154331.97
2022-09-10T17:41:46.346Z,154321.63
2022-09-10T17:44:14.597Z,154291.78
2022-09-10T17:46:42.831Z,154309.94
2022-09-10T17:49:14.117Z,154313.81
2022-09-10T17:51:41.932Z,154313.81
2022-09-10T17:54:09.798Z,154291.78
2022-09-10T17:56:38.066Z,154280.13
2022-09-10T17:59:06.666Z,154289.19
2022-09-10T18:01:37.723Z,154294.41
2022-09-10T18:04:06.027Z,154287.88
2022-09-10T18:06:36.265Z,154245.09
2022-09-10T18:09:04.566Z,154268.44
2022-09-10T18:11:34.728Z,154263.25
2022-09-10T18:14:02.877Z,154268.44
2022-09-10T18:16:33.134Z,154261.91
2022-09-10T18:19:03.183Z,154268.44
2022-09-10T18:21:32.667Z,154243.78
2022-09-10T18:24:04.017Z,154245.09
2022-09-10T18:26:34.619Z,154238.56
2022-09-10T18:29:05.080Z,154246.38
2022-09-10T18:31:35.339Z,154248.97
2022-09-10T18:34:04.915Z,154254.16
2022-09-10T18:36:32.645Z,154258.03
2022-09-10T18:39:05.690Z,154215.22
2022-09-10T18:41:36.451Z,154232.09
2022-09-10T18:44:07.171Z,154226.91
2022-09-10T18:46:36.486Z,154189.28
2022-09-10T18:49:05.233Z,154212.63
2022-09-10T18:51:33.007Z,154208.75
2022-09-10T18:54:02.991Z,154217.81
2022-09-10T18:56:33.188Z,154194.47
2022-09-10T18:59:04.666Z,154188.00
2022-09-10T19:01:33.065Z,154197.06
2022-09-10T19:04:01.182Z,154181.53
2022-09-10T19:06:32.283Z,154176.28
2022-09-10T19:09:01.399Z,154164.59
2022-09-10T19:11:33.187Z,154163.28
2022-09-10T19:14:02.213Z,154162.00
2022-09-10T19:16:31.908Z,154158.13
2022-09-10T19:19:00.959Z,154134.78
2022-09-10T19:21:32.272Z,154134.78
2022-09-10T19:24:01.578Z,154129.59
2022-09-10T19:26:33.287Z,154103.66
2022-09-10T19:29:02.381Z,154088.09
2022-09-10T19:31:32.818Z,154107.53
2022-09-10T19:34:03.034Z,154067.31
2022-09-10T19:36:34.019Z,154059.56
2022-09-10T19:39:04.774Z,154064.78
2022-09-10T19:41:35.388Z,154043.97
2022-09-10T19:44:04.181Z,154047.91
2022-09-10T19:46:31.964Z,154041.44
2022-09-10T19:49:00.773Z,154007.69
2022-09-10T19:51:29.931Z,154008.97
2022-09-10T19:53:59.464Z,154005.09
2022-09-10T19:56:31.219Z,154008.97
2022-09-10T19:59:02.580Z,153961.03
2022-09-10T20:01:32.169Z,153944.19
2022-09-10T20:04:01.888Z,153976.56
2022-09-10T20:06:30.664Z,153929.91
2022-09-10T20:08:58.848Z,153926.03
2022-09-10T20:11:28.616Z,153929.91
2022-09-10T20:13:58.303Z,153907.91
2022-09-10T20:16:27.741Z,153903.97
2022-09-10T20:18:55.841Z,153918.25
2022-09-10T20:21:26.796Z,153919.56
2022-09-10T20:23:56.567Z,153907.91
2022-09-10T20:26:25.819Z,153862.47
2022-09-10T20:28:55.738Z,153879.34
2022-09-10T20:31:24.704Z,153889.72
2022-09-10T20:33:57.424Z,153891.06
2022-09-10T20:36:27.019Z,153888.44
2022-09-10T20:38:55.818Z,153856.00
2022-09-10T20:41:24.062Z,153881.94
2022-09-10T20:43:52.901Z,153843.03
2022-09-10T20:46:23.115Z,153867.66
2022-09-10T20:48:53.329Z,153867.66
2022-09-10T20:51:22.609Z,153832.69
2022-09-10T20:53:50.399Z,153811.94
2022-09-10T20:56:19.755Z,153854.69
2022-09-10T20:58:48.091Z,153848.22
2022-09-10T21:01:18.934Z,153852.09
2022-09-10T21:03:47.927Z,153817.09
2022-09-10T21:06:17.724Z,153826.16
2022-09-10T21:08:48.220Z,153849.50
2022-09-10T21:11:17.942Z,153811.94
2022-09-10T21:13:47.841Z,153836.56
2022-09-10T21:16:17.729Z,153811.94
2022-09-10T21:18:53.598Z,153827.50
2022-09-10T21:21:25.640Z,153818.41
2022-09-10T21:23:56.513Z,153810.63
2022-09-10T21:26:26.652Z,153793.78
2022-09-10T21:28:56.340Z,153787.31
2022-09-10T21:31:25.166Z,153798.97
2022-09-10T21:33:52.918Z,153796.38
2022-09-10T21:36:21.748Z,153789.91
2022-09-10T21:38:50.241Z,153770.47
2022-09-10T21:41:25.770Z,153727.75
2022-09-10T21:43:53.614Z,153740.66
2022-09-10T21:46:21.490Z,153719.94
2022-09-10T21:48:49.244Z,153709.56
2022-09-10T21:51:19.482Z,153712.16
2022-09-10T21:53:47.931Z,153694.03
2022-09-10T21:56:17.215Z,153683.66
2022-09-10T21:58:47.313Z,153694.03
2022-09-10T22:01:15.771Z,153670.72
2022-09-10T22:03:43.910Z,153686.25
2022-09-10T22:06:13.369Z,153673.31
2022-09-10T22:08:43.468Z,153640.94
2022-09-10T22:11:14.243Z,153642.22
2022-09-10T22:13:42.380Z,153640.94
2022-09-10T22:16:13.404Z,153635.75
2022-09-10T22:18:41.446Z,153605.97
2022-09-10T22:21:10.127Z,153633.16
2022-09-10T22:23:39.503Z,153638.34
2022-09-10T22:26:09.205Z,153627.97
2022-09-10T22:28:37.495Z,153608.53
2022-09-10T22:31:14.970Z,153613.72
2022-09-10T22:33:44.996Z,153605.97
2022-09-10T22:36:15.153Z,153605.97
2022-09-10T22:38:44.185Z,153577.47
2022-09-10T22:41:14.095Z,153605.97
2022-09-10T22:43:42.769Z,153600.78
2022-09-10T22:46:12.498Z,153565.81
2022-09-10T22:48:42.492Z,153600.78
2022-09-10T22:51:12.721Z,153585.22
2022-09-10T22:53:41.575Z,153609.84
2022-09-10T22:56:10.150Z,153600.78
2022-09-10T22:58:38.409Z,153616.31
2022-09-10T23:01:07.628Z,153604.66
2022-09-10T23:03:37.182Z,153574.88
2022-09-10T23:06:06.324Z,153558.00
2022-09-10T23:08:35.896Z,153564.50
2022-09-10T23:11:12.202Z,153541.16
2022-09-10T23:13:41.041Z,153533.41
2022-09-10T23:16:13.805Z,153519.16
2022-09-10T23:18:44.024Z,153502.31
2022-09-10T23:21:11.942Z,153495.84
2022-09-10T23:23:39.715Z,153475.09
2022-09-10T23:26:09.866Z,153489.34
2022-09-10T23:28:38.311Z,153481.63
2022-09-10T23:31:13.376Z,153449.25
2022-09-10T23:33:44.316Z,153460.91
2022-09-10T23:36:13.295Z,153420.78
2022-09-10T23:38:42.260Z,153418.19
2022-09-10T23:41:11.873Z,153425.97
2022-09-10T23:43:40.317Z,153437.59
2022-09-10T23:46:08.953Z,153406.53
2022-09-10T23:48:37.527Z,153389.69
2022-09-10T23:51:07.728Z,153410.41
2022-09-10T23:53:35.483Z,153380.63
2022-09-10T23:56:03.846Z,153383.22
2022-09-10T23:58:31.726Z,153388.41
